Latest Weather Observations for Canberra

IDN60801

Issued at 10:05 pm EDT Sunday 23 November 2014 (issued every 30 minutes, with the page automatically refreshed every 10 minutes)

About weather observations | Map of weather stations | Latest weather observations for NSW | Other Formats
Station Details ID: 070351 Name: CANBERRA AIRPORT Lat: -35.31 Lon: 149.20 Height: 577.05 m
Data from the previous 72 hours. | See also: Recent months at Canberra
Date/Time
EDT
Temp
°C
App
Temp
°C
Dew
Point
Rel
Hum
%
Delta-T
°C
Wind Press
QNH
hPa
Press
MSL
hPa
Rain
since 9 am
mm
Dir
 
Spd
km/h
Gust
km/h
Spd
kts
Gust
kts
23/10:00pm 22.1 22.3 11.8 52 5.9 W 2 9 1 5 1014.4 - 0.0
23/09:30pm 23.2 21.7 10.6 45 7.1 ESE 9 9 5 5 1014.1 - 0.0
23/09:00pm 25.7 24.1 11.5 41 8.3 ENE 11 13 6 7 1013.5 1012.2 0.0
23/08:30pm 26.5 23.8 11.8 40 8.6 NE 17 26 9 14 1013.2 - 0.0
23/08:00pm 27.9 22.4 10.6 34 10.0 N 30 39 16 21 1013.2 - 0.0
23/07:30pm 29.7 25.5 11.2 31 10.9 NE 24 39 13 21 1013.2 - 0.0
23/07:00pm 34.2 29.2 6.5 18 15.5 W 22 30 12 16 1012.0 - 0.0
23/06:30pm 34.8 28.6 6.2 17 16.0 W 28 41 15 22 1011.4 - 0.0
23/06:00pm 34.9 29.3 5.4 16 16.3 W 24 41 13 22 1010.6 1009.2 0.0
23/05:30pm 36.8 31.3 5.9 15 17.3 W 24 35 13 19 1010.3 - 0.0
23/05:00pm 37.2 32.6 6.3 15 17.5 WSW 20 33 11 18 1010.1 - 0.0
23/04:30pm 37.6 32.8 7.5 16 17.4 W 22 33 12 18 1010.3 - 0.0
23/04:00pm 37.8 32.5 6.7 15 17.7 WNW 24 32 13 17 1010.4 - 0.0
23/03:30pm 38.1 32.8 7.0 15 17.8 W 24 39 13 21 1010.6 - 0.0
23/03:00pm 38.8 32.1 7.5 15 18.2 NW 32 54 17 29 1010.8 1009.5 0.0
23/02:51pm 37.9 30.1 4.7 13 18.4 NW 35 54 19 29 1010.9 - 0.0
23/02:30pm 38.0 31.2 6.9 15 17.8 W 32 41 17 22 1010.9 - 0.0
23/02:09pm 37.1 30.7 7.1 16 17.2 WNW 30 48 16 26 1011.1 - 0.0
23/02:00pm 37.5 30.4 6.5 15 17.6 NW 33 50 18 27 1011.2 - 0.0
23/01:47pm 37.1 30.9 6.2 15 17.4 NW 28 44 15 24 1011.5 - 0.0
23/01:30pm 36.1 31.8 8.0 18 16.2 W 20 26 11 14 1011.7 - 0.0
23/01:00pm 36.7 31.4 8.5 18 16.4 NW 26 37 14 20 1012.4 - 0.0
23/12:30pm 35.3 30.7 8.2 19 15.6 WNW 22 39 12 21 1012.8 - 0.0
23/12:00pm 33.3 30.9 10.0 24 13.7 W 13 22 7 12 1013.0 1011.7 0.0
23/11:30am 32.3 30.4 9.2 24 13.4 NW 9 17 5 9 1013.3 - 0.0
23/11:00am 30.3 28.3 8.7 26 12.3 WSW 9 15 5 8 1013.5 - 0.0
23/10:00am 28.0 26.7 9.3 31 10.6 WSW 6 11 3 6 1013.9 - 0.0
23/09:30am 26.6 25.1 9.0 33 9.9 W 7 11 4 6 1014.0 - 0.0
23/09:00am 24.4 23.3 9.9 40 8.2 WSW 6 9 3 5 1014.2 1012.9 0.0
23/08:30am 22.3 21.2 9.8 45 7.0 WSW 6 7 3 4 1014.1 - 0.0
23/08:00am 20.0 20.1 10.1 53 5.5 CALM 0 2 0 1 1013.8 - 0.0
23/07:30am 18.2 16.5 9.8 58 4.6 N 9 9 5 5 1013.9 - 0.0
23/07:00am 16.6 15.0 10.2 66 3.5 ENE 9 13 5 7 1013.9 - 0.0
23/06:30am 14.0 12.9 9.8 76 2.2 NE 6 9 3 5 1013.7 - 0.0
23/06:00am 12.5 11.9 9.1 80 1.8 N 2 7 1 4 1014.0 1012.7 0.0
23/05:30am 11.8 10.2 8.1 78 1.9 SSE 6 9 3 5 1013.5 - 0.0
23/05:00am 12.8 11.5 9.1 78 1.9 SE 6 7 3 4 1013.5 - 0.0
23/04:30am 12.1 11.6 8.0 76 2.1 CALM 0 4 0 2 1012.9 - 0.0
23/04:00am 14.0 13.4 9.0 72 2.6 N 2 7 1 4 1012.9 - 0.0
23/03:30am 14.7 14.6 9.3 70 2.9 CALM 0 4 0 2 1012.8 - 0.0
23/03:00am 15.0 13.5 8.5 65 3.4 S 6 7 3 4 1013.0 1011.7 0.0
23/02:30am 14.7 14.2 9.3 70 2.9 ESE 2 7 1 4 1012.9 - 0.0
23/02:00am 13.8 12.0 9.6 76 2.2 S 9 11 5 6 1013.1 - 0.0
23/01:30am 14.8 13.4 9.4 70 2.9 E 7 7 4 4 1013.2 - 0.0
23/01:00am 16.4 15.9 10.9 70 3.0 NE 4 7 2 4 1013.5 - 0.0
23/12:30am 15.6 13.8 9.5 67 3.3 N 9 13 5 7 1014.0 - 0.0
23/12:00am 16.3 15.6 10.2 67 3.3 N 4 7 2 4 1014.3 1013.0 0.0
 
Date/Time
EDT
Temp
°C
App
Temp
°C
Dew
Point
Rel
Hum
%
Delta-T
°C
Wind Press
QNH
hPa
Press
MSL
hPa
Rain
since 9 am
mm
Dir
 
Spd
km/h
Gust
km/h
Spd
kts
Gust
kts
22/11:30pm 15.9 14.6 9.3 65 3.5 SSW 6 9 3 5 1014.3 - 0.0
22/11:00pm 18.4 18.3 9.5 56 4.8 CALM 0 0 0 0 1014.2 - 0.0
22/10:30pm 18.6 17.2 9.7 56 4.8 SSW 7 9 4 5 1014.4 - 0.0
22/10:00pm 19.5 19.4 9.4 52 5.5 CALM 0 0 0 0 1014.2 - 0.0
22/09:30pm 20.0 20.0 9.9 52 5.6 CALM 0 0 0 0 1014.0 - 0.0
22/09:00pm 20.3 20.2 9.5 50 5.9 CALM 0 0 0 0 1013.8 1012.4 0.0
22/08:30pm 21.5 20.3 9.7 47 6.5 NNE 6 7 3 4 1013.7 - 0.0
22/08:00pm 24.7 23.3 9.4 38 8.6 W 7 7 4 4 1013.2 - 0.0
22/07:30pm 27.2 25.2 8.6 31 10.4 W 9 11 5 6 1013.0 - 0.0
22/07:00pm 27.9 25.1 8.7 30 10.8 W 13 19 7 10 1012.7 - 0.0
22/06:30pm 29.1 25.8 8.2 27 11.7 W 15 20 8 11 1012.5 - 0.0
22/06:00pm 28.9 24.8 8.6 28 11.5 W 20 22 11 12 1012.3 1010.9 0.0
22/05:30pm 29.1 25.1 8.2 27 11.7 W 19 28 10 15 1012.6 - 0.0
22/05:00pm 29.4 25.3 8.5 27 11.8 W 20 30 11 16 1012.3 - 0.0
22/04:30pm 29.8 26.2 8.2 26 12.2 WSW 17 22 9 12 1012.5 - 0.0
22/04:00pm 29.9 24.0 7.7 25 12.4 WNW 28 39 15 21 1012.4 - 0.0
22/03:30pm 30.8 26.3 8.5 25 12.7 NW 22 35 12 19 1012.4 - 0.0
22/03:00pm 31.0 24.6 8.7 25 12.7 NNW 32 43 17 23 1012.6 1011.3 0.0
22/02:30pm 30.3 25.6 9.2 27 12.1 NW 24 35 13 19 1012.6 - 0.0
22/02:00pm 30.8 25.5 8.5 25 12.7 W 26 35 14 19 1013.0 - 0.0
22/01:30pm 30.2 25.8 7.4 24 12.7 NW 20 32 11 17 1012.8 - 0.0
22/01:00pm 28.6 24.7 7.2 26 11.8 NW 17 28 9 15 1013.2 - 0.0
22/12:30pm 27.2 24.5 10.4 35 9.7 WNW 15 22 8 12 1013.8 - 0.0
22/12:00pm 26.7 23.3 11.2 38 9.0 NNW 20 28 11 15 1014.4 1013.1 0.0
22/11:30am 25.7 23.9 12.2 43 8.0 NW 13 22 7 12 1014.7 - 0.0
22/11:00am 24.6 23.4 14.1 52 6.4 N 13 19 7 10 1015.2 - 0.0
22/10:30am 23.3 21.5 13.2 53 6.0 N 15 22 8 12 1015.4 - 0.0
22/10:00am 21.7 21.0 13.1 58 5.1 N 9 17 5 9 1015.7 - 0.0
22/09:30am 21.2 20.2 13.4 61 4.6 N 11 15 6 8 1015.8 - 0.0
22/09:00am 20.3 20.3 13.7 66 3.9 NE 6 9 3 5 1015.7 1014.4 0.0
22/08:30am 18.1 17.8 13.2 73 2.8 N 7 9 4 5 1015.9 - 0.0
22/08:00am 18.3 18.3 13.6 74 2.7 S 6 7 3 4 1015.8 - 0.0
22/07:30am 17.4 16.7 13.1 76 2.5 E 9 11 5 6 1015.4 - 0.0
22/07:22am 17.3 17.1 13.6 79 2.2 E 7 9 4 5 1015.3 - 0.0
22/07:00am 15.5 16.4 13.9 90 0.9 ESE 2 7 1 4 1015.7 - 0.0
22/06:30am 14.7 14.5 12.9 89 1.0 ESE 6 7 3 4 1015.7 - 0.0
22/06:00am 15.5 15.5 13.5 88 1.1 S 6 7 3 4 1015.6 1014.3 0.0
22/05:30am 15.4 15.8 13.6 89 1.0 SSE 4 6 2 3 1015.3 - 0.0
22/05:00am 15.0 15.0 13.5 91 0.9 S 6 7 3 4 1015.1 - 0.0
22/04:30am 14.3 14.1 13.0 92 0.7 SSE 6 7 3 4 1014.9 - 0.0
22/04:00am 14.2 13.7 12.8 91 0.8 S 7 7 4 4 1014.7 - 0.0
22/03:30am 14.5 15.4 13.0 91 0.9 CALM 0 0 0 0 1014.4 - 0.0
22/03:00am 13.8 13.4 13.0 95 0.5 SSE 7 7 4 4 1014.5 1013.2 0.0
22/02:46am 13.0 11.9 12.1 94 0.5 S 9 11 5 6 1014.6 - 0.0
22/02:30am 13.2 12.4 11.8 91 0.8 S 7 9 4 5 1014.5 - 0.0
22/02:00am 14.2 13.7 12.2 88 1.1 SE 6 7 3 4 1014.5 - 0.0
22/01:30am 14.7 14.1 12.4 86 1.3 E 7 9 4 5 1014.7 - 0.0
22/01:00am 15.2 14.4 12.9 86 1.3 E 9 13 5 7 1014.8 - 0.0
22/12:30am 15.5 15.0 12.6 83 1.6 ENE 7 9 4 5 1015.0 - 0.0
22/12:00am 15.8 15.2 12.2 79 2.0 ENE 7 15 4 8 1014.9 1013.6 0.0
 
Date/Time
EDT
Temp
°C
App
Temp
°C
Dew
Point
Rel
Hum
%
Delta-T
°C
Wind Press
QNH
hPa
Press
MSL
hPa
Rain
since 9 am
mm
Dir
 
Spd
km/h
Gust
km/h
Spd
kts
Gust
kts
21/11:30pm 16.6 14.9 12.4 76 2.4 ENE 13 17 7 9 1014.8 - 0.0
21/11:00pm 18.0 16.3 11.3 65 3.7 ENE 11 19 6 10 1014.6 - 0.0
21/10:30pm 17.8 16.2 7.8 52 5.2 NNE 6 7 3 4 1013.9 - 0.0
21/10:00pm 20.7 19.2 9.0 47 6.4 NE 7 9 4 5 1013.8 - 0.0
21/09:30pm 18.9 16.7 7.7 48 5.9 NNW 9 13 5 7 1013.3 - 0.0
21/09:00pm 21.4 18.5 8.0 42 7.2 NW 13 15 7 8 1012.9 1011.6 0.0
21/08:30pm 22.6 19.6 7.6 38 8.0 NW 13 19 7 10 1012.4 - 0.0
21/08:00pm 23.9 20.9 7.5 35 8.8 NW 13 19 7 10 1012.0 - 0.0
21/07:30pm 25.8 22.6 8.3 33 9.7 W 15 17 8 9 1011.5 - 0.0
21/07:00pm 26.9 22.7 8.4 31 10.3 WNW 20 28 11 15 1011.0 - 0.0
21/06:30pm 27.5 23.3 8.4 30 10.7 WNW 20 33 11 18 1010.4 - 0.0
21/06:00pm 27.3 22.2 9.2 32 10.2 W 26 37 14 20 1010.1 1008.7 0.0
21/05:30pm 28.4 23.6 8.7 29 11.1 WNW 24 32 13 17 1009.7 - 0.0
21/05:00pm 28.8 25.5 9.5 30 11.0 WSW 17 19 9 10 1009.7 - 0.0
21/04:30pm 29.0 23.8 8.7 28 11.5 WNW 26 37 14 20 1009.7 - 0.0
21/04:00pm 29.9 25.2 9.4 28 11.8 W 24 35 13 19 1009.7 - 0.0
21/03:30pm 29.1 23.8 9.8 30 11.1 W 28 44 15 24 1009.8 - 0.0
21/03:00pm 30.1 25.0 10.6 30 11.4 WNW 28 37 15 20 1009.8 1008.5 0.0
21/02:30pm 28.7 23.9 10.4 32 10.6 WNW 26 37 14 20 1010.0 - 0.0
21/02:00pm 28.6 23.6 10.8 33 10.4 WSW 28 33 15 18 1010.2 - 0.0
21/01:30pm 26.6 21.2 9.5 34 9.7 WNW 28 43 15 23 1010.4 - 0.0
21/01:07pm 28.2 22.7 10.4 33 10.3 WNW 30 50 16 27 1010.3 - 0.0
21/01:00pm 27.2 21.7 10.4 35 9.7 W 30 41 16 22 1010.3 - 0.0
21/12:30pm 26.5 22.2 10.6 37 9.2 W 24 33 13 18 1010.1 - 0.0
21/12:00pm 27.3 22.2 10.5 35 9.7 W 28 39 15 21 1010.1 1008.7 0.0
21/11:30am 27.2 21.9 10.0 34 9.8 W 28 39 15 21 1010.2 - 0.0
21/11:00am 27.3 21.9 10.9 36 9.5 W 30 37 16 20 1010.2 - 0.0
21/10:30am 26.3 20.8 9.2 34 9.6 W 28 37 15 20 1010.2 - 0.0
21/10:00am 26.2 20.8 9.5 35 9.4 WNW 28 39 15 21 1010.1 - 0.0
21/09:30am 25.2 20.4 8.7 35 9.1 WNW 24 32 13 17 1010.0 - 0.0
21/09:00am 24.5 19.5 8.0 35 9.0 W 24 32 13 17 1009.8 1008.5 0.0
21/08:30am 23.7 20.9 8.5 38 8.3 NW 13 17 7 9 1009.7 - 0.0
21/08:00am 21.5 20.2 10.0 48 6.4 W 7 9 4 5 1009.4 - 0.0
21/07:30am 18.9 17.6 9.9 56 4.9 WSW 7 9 4 5 1009.3 - 0.0
21/07:00am 16.8 16.7 9.5 62 3.9 CALM 0 4 0 2 1008.8 - 0.0
21/06:30am 15.1 14.1 9.0 67 3.2 NE 4 9 2 5 1009.1 - 0.0
21/06:00am 14.5 13.1 8.9 69 2.9 S 6 9 3 5 1009.2 1007.8 0.0
21/05:30am 14.1 11.8 7.6 65 3.3 ESE 9 13 5 7 1008.8 - 0.0
21/05:00am 13.3 10.9 7.1 66 3.1 ESE 9 11 5 6 1008.5 - 0.0
21/04:30am 14.7 14.2 7.7 63 3.6 CALM 0 11 0 6 1008.0 - 0.0
21/04:00am 15.3 13.2 8.1 62 3.7 E 9 13 5 7 1007.7 - 0.0
21/03:30am 17.2 16.0 9.4 60 4.2 S 6 7 3 4 1007.9 - 0.0
21/03:00am 17.0 15.1 9.2 60 4.2 SE 9 13 5 7 1008.0 1006.7 0.0
21/02:30am 17.4 15.8 8.0 54 4.9 WSW 6 9 3 5 1008.4 - 0.0
21/02:00am 18.2 17.2 7.3 49 5.7 ENE 2 9 1 5 1008.8 - 0.0
21/01:30am 18.0 15.5 8.3 53 5.1 E 11 15 6 8 1008.8 - 0.0
21/01:00am 18.0 15.7 7.4 50 5.5 SSW 9 13 5 7 1008.8 - 0.0
21/12:30am 18.2 16.9 6.1 45 6.1 SW 2 7 1 4 1008.6 - 0.0
21/12:00am 19.3 17.1 5.4 40 7.0 ESE 6 7 3 4 1008.7 1007.3 0.0
 
Date/Time
EDT
Temp
°C
App
Temp
°C
Dew
Point
Rel
Hum
%
Delta-T
°C
Wind Press
QNH
hPa
Press
MSL
hPa
Rain
since 9 am
mm
Dir
 
Spd
km/h
Gust
km/h
Spd
kts
Gust
kts
20/11:30pm 20.2 17.2 4.3 35 7.9 NNE 9 13 5 7 1009.0 - 0.0
20/11:00pm 23.8 20.4 5.7 31 9.4 W 13 17 7 9 1009.4 - 0.0
20/10:30pm 24.5 20.0 4.3 27 10.3 NW 17 20 9 11 1009.5 - 0.0

Other Formats:

Comma delimited format used in spreadsheet applications
http://www.bom.gov.au/fwo/IDN60801/IDN60801.94926.axf

JavaScript Object Notation format (JSON) in row-major order
http://www.bom.gov.au/fwo/IDN60801/IDN60801.94926.json